createdAt,value
2023-05-22T00:02:48.027Z,61.35
2023-05-22T00:07:45.550Z,60.90
2023-05-22T00:12:42.929Z,60.93
2023-05-22T00:17:40.359Z,61.18
2023-05-22T00:22:40.342Z,61.95
2023-05-22T00:27:37.454Z,62.83
2023-05-22T00:32:36.435Z,62.94
2023-05-22T00:37:33.601Z,63.14
2023-05-22T00:42:31.379Z,64.04
2023-05-22T00:47:28.405Z,63.66
2023-05-22T00:52:25.670Z,63.03
2023-05-22T00:57:23.936Z,62.59
2023-05-22T01:02:22.348Z,62.11
2023-05-22T01:07:19.295Z,62.15
2023-05-22T01:12:24.479Z,62.39
2023-05-22T01:17:34.120Z,62.46
2023-05-22T01:22:49.434Z,62.48
2023-05-22T01:28:05.908Z,62.44
2023-05-22T01:33:06.976Z,62.58
2023-05-22T01:38:04.390Z,62.34
2023-05-22T01:43:01.440Z,62.30
2023-05-22T01:47:58.531Z,62.10
2023-05-22T01:53:06.118Z,61.80
2023-05-22T01:58:12.750Z,61.49
2023-05-22T02:03:18.071Z,61.43
2023-05-22T02:08:17.136Z,61.39
2023-05-22T02:13:14.292Z,61.21
2023-05-22T02:18:12.898Z,61.08
2023-05-22T02:23:10.356Z,60.93
2023-05-22T02:28:08.044Z,60.98
2023-05-22T02:33:05.533Z,61.06
2023-05-22T02:38:02.939Z,60.95
2023-05-22T02:42:59.960Z,61.08
2023-05-22T02:47:59.605Z,61.20
2023-05-22T02:52:56.650Z,61.06
2023-05-22T02:57:53.613Z,61.27
2023-05-22T03:02:51.436Z,60.98
2023-05-22T03:07:49.506Z,61.00
2023-05-22T03:12:46.502Z,60.69
2023-05-22T03:17:44.066Z,60.59
2023-05-22T03:22:41.657Z,60.40
2023-05-22T03:27:40.024Z,60.38
2023-05-22T03:32:37.979Z,60.29
2023-05-22T03:37:35.883Z,60.34
2023-05-22T03:42:32.873Z,60.17
2023-05-22T03:47:30.865Z,59.91
2023-05-22T03:52:27.996Z,59.74
2023-05-22T03:57:24.983Z,59.05
2023-05-22T04:02:22.425Z,58.75
2023-05-22T04:07:21.869Z,57.32
2023-05-22T04:12:20.925Z,56.54
2023-05-22T04:17:19.794Z,55.31
2023-05-22T04:22:16.996Z,54.55
2023-05-22T04:27:15.220Z,54.17
2023-05-22T04:32:11.973Z,53.67
2023-05-22T04:37:09.770Z,52.81
2023-05-22T04:42:15.398Z,52.41
2023-05-22T04:47:13.935Z,52.04
2023-05-22T04:52:13.728Z,51.31
2023-05-22T04:57:10.729Z,50.85
2023-05-22T05:02:08.928Z,50.83
2023-05-22T05:07:21.175Z,50.58
2023-05-22T05:12:20.312Z,50.37
2023-05-22T05:17:17.299Z,49.23
2023-05-22T05:22:14.834Z,48.77
2023-05-22T05:27:11.893Z,47.76
2023-05-22T05:32:09.478Z,46.26
2023-05-22T05:37:23.791Z,44.29
2023-05-22T05:42:23.343Z,42.74
2023-05-22T05:47:23.381Z,40.59
2023-05-22T05:52:33.819Z,38.55
2023-05-22T05:57:37.757Z,36.83
2023-05-22T06:02:41.845Z,32.77
2023-05-22T06:08:06.126Z,31.11
2023-05-22T06:13:03.347Z,31.33
2023-05-22T06:18:03.334Z,30.91
2023-05-22T06:23:07.509Z,31.60
2023-05-22T06:28:05.612Z,31.78
2023-05-22T06:33:03.648Z,30.83
2023-05-22T06:38:01.506Z,30.54
2023-05-22T06:42:59.107Z,30.12
2023-05-22T06:48:13.879Z,31.96
2023-05-22T06:53:25.787Z,32.13
2023-05-22T06:58:23.172Z,32.28
2023-05-22T07:03:21.446Z,31.29
2023-05-22T07:08:48.195Z,29.37
2023-05-22T07:13:45.433Z,28.73
2023-05-22T07:18:42.469Z,27.17
2023-05-22T07:23:39.681Z,26.78
2023-05-22T07:28:39.632Z,24.28
2023-05-22T07:33:44.849Z,24.14
2023-05-22T07:38:42.481Z,25.63
2023-05-22T07:43:52.479Z,25.00
2023-05-22T07:48:55.137Z,25.44
2023-05-22T07:59:02.774Z,26.80
2023-05-22T08:04:09.776Z,27.08
2023-05-22T08:09:32.353Z,28.69
2023-05-22T08:14:31.575Z,28.74
2023-05-22T08:19:47.707Z,28.53
2023-05-22T08:24:47.609Z,27.09
2023-05-22T08:29:45.936Z,24.92
2023-05-22T08:34:45.576Z,23.91
2023-05-22T08:39:43.538Z,22.97
2023-05-22T08:44:40.935Z,22.18
2023-05-22T08:49:49.874Z,22.75
2023-05-22T08:54:52.545Z,24.85
2023-05-22T08:59:53.195Z,26.08
2023-05-22T09:05:18.336Z,25.79
2023-05-22T09:10:22.208Z,24.91
2023-05-22T09:15:30.387Z,24.99
2023-05-22T09:20:29.712Z,23.89
2023-05-22T09:25:28.060Z,23.40
2023-05-22T09:30:27.420Z,23.76
2023-05-22T09:35:33.274Z,23.60
2023-05-22T09:40:40.526Z,24.79
2023-05-22T09:45:45.540Z,24.21
2023-05-22T09:50:55.323Z,23.21
2023-05-22T09:55:56.305Z,22.12
2023-05-22T10:00:58.291Z,22.11
2023-05-22T10:05:58.494Z,22.96
2023-05-22T10:11:01.470Z,23.41
2023-05-22T10:16:04.214Z,22.32
2023-05-22T10:21:08.175Z,22.56
2023-05-22T10:26:13.103Z,23.03
2023-05-22T10:31:24.866Z,24.18
2023-05-22T10:37:00.455Z,25.88
2023-05-22T10:42:12.710Z,26.86
2023-05-22T10:47:12.917Z,28.33
2023-05-22T10:52:14.122Z,28.35
2023-05-22T10:57:15.419Z,28.71
2023-05-22T11:02:20.971Z,29.53
2023-05-22T11:07:18.835Z,29.76
2023-05-22T11:12:24.853Z,30.46
2023-05-22T11:17:23.964Z,31.32
2023-05-22T11:22:30.918Z,31.79
2023-05-22T11:27:37.408Z,32.19
2023-05-22T11:32:38.843Z,33.23
2023-05-22T11:37:39.700Z,34.28
2023-05-22T11:42:37.062Z,41.41
2023-05-22T11:47:34.629Z,43.78
2023-05-22T11:52:33.009Z,44.59
2023-05-22T11:57:31.400Z,43.97
2023-05-22T12:02:28.255Z,44.42
2023-05-22T12:07:27.002Z,42.20
2023-05-22T12:12:24.090Z,40.77
2023-05-22T12:17:37.609Z,37.42
2023-05-22T12:22:41.070Z,37.26
2023-05-22T12:27:38.883Z,35.26
2023-05-22T12:32:36.587Z,35.96
2023-05-22T12:37:34.010Z,35.90
2023-05-22T12:42:31.206Z,35.85
2023-05-22T12:47:33.129Z,34.61
2023-05-22T12:52:36.471Z,33.97
2023-05-22T12:57:38.612Z,33.42
2023-05-22T13:02:36.142Z,33.98
2023-05-22T13:07:33.805Z,33.20
2023-05-22T13:12:31.657Z,31.72
2023-05-22T13:17:31.048Z,32.51
2023-05-22T13:22:39.816Z,31.73
2023-05-22T13:27:44.632Z,32.45
2023-05-22T13:32:48.466Z,32.20
2023-05-22T13:37:46.508Z,32.43
2023-05-22T13:42:44.011Z,32.87
2023-05-22T13:47:41.042Z,33.30
2023-05-22T13:52:40.266Z,32.33
2023-05-22T13:57:39.986Z,32.63
2023-05-22T14:02:40.012Z,31.96
2023-05-22T14:07:56.885Z,31.80
2023-05-22T14:13:02.055Z,31.84
2023-05-22T14:17:59.433Z,31.91
2023-05-22T14:23:07.050Z,32.17
2023-05-22T14:28:04.834Z,31.91
2023-05-22T14:33:10.969Z,32.10
2023-05-22T14:38:19.293Z,32.16
2023-05-22T14:43:18.019Z,31.77
2023-05-22T14:48:15.160Z,31.67
2023-05-22T14:53:15.535Z,31.86
2023-05-22T14:58:21.472Z,32.72
2023-05-22T15:03:27.052Z,33.03
2023-05-22T15:08:28.005Z,33.49
2023-05-22T15:13:53.162Z,34.03
2023-05-22T15:18:50.920Z,33.50
2023-05-22T15:23:51.908Z,33.71
2023-05-22T15:28:49.976Z,34.07
2023-05-22T15:33:55.077Z,34.41
2023-05-22T15:38:57.779Z,33.80
2023-05-22T15:44:03.664Z,33.47
2023-05-22T15:49:00.671Z,34.05
2023-05-22T15:53:57.729Z,34.13
2023-05-22T15:58:55.740Z,34.30
2023-05-22T16:03:53.531Z,35.05
2023-05-22T16:08:51.118Z,34.78
2023-05-22T16:13:55.238Z,35.23
2023-05-22T16:18:58.797Z,35.64
2023-05-22T16:24:08.277Z,36.04
2023-05-22T16:29:16.503Z,36.64
2023-05-22T16:34:24.862Z,36.59
2023-05-22T16:39:41.380Z,36.33
2023-05-22T16:44:46.145Z,36.45
2023-05-22T16:49:45.096Z,36.96
2023-05-22T16:54:42.272Z,36.81
2023-05-22T16:59:42.766Z,37.51
2023-05-22T17:05:12.939Z,38.00
2023-05-22T17:10:24.898Z,37.98
2023-05-22T17:15:29.041Z,38.26
2023-05-22T17:20:26.702Z,38.80
2023-05-22T17:25:30.075Z,39.19
2023-05-22T17:30:27.435Z,39.26
2023-05-22T17:35:24.790Z,40.19
2023-05-22T17:40:43.185Z,40.35
2023-05-22T17:45:58.691Z,40.39
2023-05-22T17:50:55.884Z,40.32
2023-05-22T18:01:09.424Z,40.31
2023-05-22T18:06:13.237Z,40.62
2023-05-22T18:11:13.628Z,40.83
2023-05-22T18:16:11.658Z,41.08
2023-05-22T18:21:09.295Z,41.71
2023-05-22T18:26:34.298Z,42.38
2023-05-22T18:31:32.179Z,42.30
2023-05-22T18:36:29.483Z,42.10
2023-05-22T18:41:28.375Z,42.50
2023-05-22T18:46:28.955Z,42.46
2023-05-22T18:51:28.578Z,42.96
2023-05-22T18:56:28.429Z,42.86
2023-05-22T19:01:28.423Z,43.41
2023-05-22T19:06:26.080Z,43.62
2023-05-22T19:11:23.539Z,43.60
2023-05-22T19:16:24.453Z,43.83
2023-05-22T19:21:29.986Z,44.68
2023-05-22T19:26:27.277Z,45.29
2023-05-22T19:31:25.329Z,45.32
2023-05-22T19:36:34.074Z,45.79
2023-05-22T19:41:31.604Z,46.37
2023-05-22T19:46:29.909Z,46.55
2023-05-22T19:51:27.536Z,47.60
2023-05-22T19:56:25.706Z,47.63
2023-05-22T20:01:24.632Z,48.43
2023-05-22T20:06:22.489Z,48.40
2023-05-22T20:11:19.491Z,48.44
2023-05-22T20:16:16.522Z,48.42
2023-05-22T20:21:14.358Z,48.74
2023-05-22T20:26:14.955Z,48.93
2023-05-22T20:31:12.126Z,49.54
2023-05-22T20:36:09.078Z,49.61
2023-05-22T20:41:07.582Z,50.07
2023-05-22T20:46:11.866Z,50.52
2023-05-22T20:51:09.660Z,50.55
2023-05-22T20:56:06.720Z,51.05
2023-05-22T21:01:03.905Z,51.64
2023-05-22T21:06:01.544Z,52.14
2023-05-22T21:10:58.433Z,52.36
2023-05-22T21:15:55.388Z,52.50
2023-05-22T21:20:56.462Z,52.99
2023-05-22T21:25:54.057Z,53.07
2023-05-22T21:30:51.469Z,53.35
2023-05-22T21:35:49.459Z,53.37
2023-05-22T21:40:46.409Z,53.82
2023-05-22T21:45:44.054Z,54.00
2023-05-22T21:50:41.007Z,54.22
2023-05-22T21:55:38.228Z,54.31
2023-05-22T22:00:35.280Z,54.52
2023-05-22T22:05:35.503Z,55.06
2023-05-22T22:10:32.349Z,55.12
2023-05-22T22:15:33.241Z,55.52
2023-05-22T22:20:43.675Z,55.64
2023-05-22T22:25:42.980Z,55.73
2023-05-22T22:30:40.304Z,56.07
2023-05-22T22:35:37.826Z,56.13
2023-05-22T22:40:34.883Z,56.81
2023-05-22T22:45:32.831Z,56.88
2023-05-22T22:50:29.807Z,57.36
2023-05-22T22:55:26.780Z,57.29
2023-05-22T23:00:24.110Z,57.61
2023-05-22T23:05:22.231Z,58.16
2023-05-22T23:10:19.347Z,58.42
2023-05-22T23:15:16.386Z,58.66
2023-05-22T23:20:13.679Z,58.70
2023-05-22T23:25:11.381Z,58.88
2023-05-22T23:30:08.861Z,58.95
2023-05-22T23:35:06.130Z,59.26
2023-05-22T23:40:06.073Z,59.25
2023-05-22T23:45:04.228Z,59.58
2023-05-22T23:50:01.262Z,60.03
2023-05-22T23:54:58.201Z,60.48
2023-05-22T23:59:55.260Z,60.65
